Time;durP1;ratioP1;P1;durP2;ratioP2;P2;SDS_P1;SDS_P2;PMS_P1;PMS_P2;Temp;Humidity;BMP_temperature;BMP_pressure;BME280_temperature;BME280_humidity;BME280_pressure;Samples;Min_cycle;Max_cycle;Signal;HPM_P1;HPM_P2
2022/03/06 00:03:06;;;;;;;47.40;23.30;;;;;;;-0.46;65.45;99246.94;218508;1276;24295;-69
2022/03/06 00:08:09;;;;;;;49.80;24.10;;;;;;;-0.45;65.66;99246.36;218802;1276;22533;-70
2022/03/06 00:13:14;;;;;;;45.00;23.20;;;;;;;-0.46;66.00;99245.16;218544;1276;24251;-70
2022/03/06 00:18:18;;;;;;;53.20;24.90;;;;;;;-0.44;66.15;99247.22;218430;1278;22562;-69
2022/03/06 00:23:29;;;;;;;45.50;23.10;;;;;;;-0.41;66.33;99240.29;218411;1276;22563;-69
2022/03/06 00:28:34;;;;;;;51.00;24.90;;;;;;;-0.38;66.47;99236.04;218532;1276;22549;-70
2022/03/06 00:33:44;;;;;;;50.90;25.70;;;;;;;-0.35;66.26;99234.04;218654;1276;24698;-69
2022/03/06 00:38:48;;;;;;;57.80;28.70;;;;;;;-0.32;66.42;99237.08;218696;1276;22569;-69
2022/03/06 00:43:50;;;;;;;60.30;28.40;;;;;;;-0.32;66.29;99232.70;218573;1276;25492;-69
2022/03/06 00:49:00;;;;;;;63.50;28.90;;;;;;;-0.30;66.27;99231.89;218577;1276;22813;-70
2022/03/06 00:54:02;;;;;;;57.90;28.00;;;;;;;-0.30;66.00;99230.31;219334;1276;22890;-70
2022/03/06 00:59:05;;;;;;;47.30;25.30;;;;;;;-0.32;66.05;99229.35;219431;1276;22715;-70
2022/03/06 01:04:08;;;;;;;53.10;26.50;;;;;;;-0.31;66.11;99221.48;218315;1276;22576;-70
2022/03/06 01:09:12;;;;;;;60.00;28.50;;;;;;;-0.29;66.30;99221.92;218601;1276;24569;-69
2022/03/06 01:14:15;;;;;;;60.70;29.70;;;;;;;-0.26;66.41;99218.14;218702;1276;22582;-70
2022/03/06 01:19:19;;;;;;;65.10;29.20;;;;;;;-0.23;66.50;99218.42;218540;1276;22568;-70
2022/03/06 01:24:22;;;;;;;64.10;29.80;;;;;;;-0.23;66.29;99221.63;218558;1278;23271;-69
2022/03/06 01:29:25;;;;;;;64.50;29.90;;;;;;;-0.22;66.55;99223.84;218637;1276;22557;-69
2022/03/06 01:34:27;;;;;;;72.30;32.90;;;;;;;-0.20;66.29;99220.23;219511;1276;22555;-69
2022/03/06 01:39:30;;;;;;;63.60;32.00;;;;;;;-0.20;66.50;99219.02;218543;1276;22817;-70
2022/03/06 01:44:32;;;;;;;68.90;32.90;;;;;;;-0.21;66.43;99218.02;218539;1277;24477;-70
2022/03/06 01:49:35;;;;;;;62.50;29.40;;;;;;;-0.22;66.59;99211.82;218770;1276;25411;-70
2022/03/06 01:54:41;;;;;;;60.20;29.00;;;;;;;-0.23;66.69;99209.95;218518;1276;25492;-70
2022/03/06 01:59:46;;;;;;;64.80;29.40;;;;;;;-0.22;67.04;99207.73;218620;1276;23919;-70
2022/03/06 02:05:25;;;;;;;;;;;;;;;;;;;;;
2022/03/06 02:11:31;;;;;;;53.30;26.60;;;;;;;-0.20;67.18;99214.53;218405;1278;24426;-68
2022/03/06 02:17:37;;;;;;;51.70;24.20;;;;;;;-0.20;67.30;99207.23;218353;1276;27804;-69
2022/03/06 02:22:42;;;;;;;50.20;24.80;;;;;;;-0.19;67.21;99208.56;218630;1276;25532;-70
2022/03/06 02:27:46;;;;;;;64.70;29.20;;;;;;;-0.16;67.65;99208.92;218529;1279;25432;-70
2022/03/06 02:32:50;;;;;;;63.60;29.10;;;;;;;-0.14;67.49;99207.48;218476;1276;24294;-69
2022/03/06 02:38:33;;;;;;;;;;;;;;;;;;;;;
2022/03/06 02:44:37;;;;;;;52.90;26.80;;;;;;;-0.11;67.55;99194.60;218399;1276;24318;-69
2022/03/06 02:50:03;;;;;;;53.00;26.90;;;;;;;-0.11;67.67;99195.61;218631;1276;24375;-68
2022/03/06 02:55:26;;;;;;;54.80;27.10;;;;;;;-0.12;67.83;99198.42;218474;1276;22697;-69
2022/03/06 03:00:30;;;;;;;60.00;28.40;;;;;;;-0.13;67.94;99196.88;218736;1276;22623;-70
2022/03/06 03:05:37;;;;;;;59.20;26.40;;;;;;;-0.12;67.99;99197.41;218498;1277;22560;-71
2022/03/06 03:10:40;;;;;;;53.60;25.80;;;;;;;-0.12;67.86;99197.16;218858;1276;23090;-70
2022/03/06 03:15:42;;;;;;;58.00;23.90;;;;;;;-0.12;67.93;99200.60;218542;1276;22568;-68
2022/03/06 03:20:49;;;;;;;49.80;25.20;;;;;;;-0.10;68.23;99199.84;218367;1276;22712;-70
2022/03/06 03:25:53;;;;;;;41.30;21.30;;;;;;;-0.08;67.95;99200.67;218685;1276;22558;-67
2022/03/06 03:30:55;;;;;;;57.90;27.30;;;;;;;-0.13;68.10;99197.81;218538;1277;24801;-70
2022/03/06 03:35:58;;;;;;;46.80;24.30;;;;;;;-0.19;67.91;99201.67;218634;1277;22552;-69
2022/03/06 03:41:01;;;;;;;47.20;22.80;;;;;;;-0.23;67.83;99199.67;218633;1276;24416;-69
2022/03/06 03:46:06;;;;;;;49.40;22.70;;;;;;;-0.26;68.25;99201.45;218433;1276;24344;-70
2022/03/06 03:51:12;;;;;;;45.80;22.20;;;;;;;-0.28;68.41;99198.39;218777;1277;24425;-69
2022/03/06 03:56:21;;;;;;;39.20;19.60;;;;;;;-0.31;68.36;99201.31;218640;1277;24303;-70
2022/03/06 04:01:36;;;;;;;39.90;20.10;;;;;;;-0.35;68.47;99203.83;218678;1276;22863;-69
2022/03/06 04:06:46;;;;;;;38.40;19.00;;;;;;;-0.34;68.64;99204.08;218410;1276;22568;-70
2022/03/06 04:12:35;;;;;;;34.60;16.50;;;;;;;-0.36;68.47;99201.20;219395;1276;22760;-71
2022/03/06 04:17:40;;;;;;;27.40;15.10;;;;;;;-0.35;68.12;99209.54;218560;1276;22670;-69
2022/03/06 04:22:43;;;;;;;32.10;14.80;;;;;;;-0.36;67.76;99217.20;218627;1277;22924;-70
2022/03/06 04:27:48;;;;;;;28.30;14.10;;;;;;;-0.37;67.79;99218.38;218423;1277;22544;-70
2022/03/06 04:32:51;;;;;;;34.30;15.20;;;;;;;-0.35;67.74;99224.07;218504;1276;22704;-70
2022/03/06 04:37:53;;;;;;;31.30;15.50;;;;;;;-0.35;67.86;99223.14;218567;1276;22892;-70
2022/03/06 04:42:56;;;;;;;25.10;13.80;;;;;;;-0.34;67.46;99223.07;218785;1276;22748;-69
2022/03/06 04:48:01;;;;;;;20.00;11.10;;;;;;;-0.33;67.45;99226.71;218570;1276;22700;-70
2022/03/06 04:53:34;;;;;;;21.40;11.50;;;;;;;-0.33;67.29;99229.10;218790;1276;22638;-69
2022/03/06 04:59:10;;;;;;;18.30;10.10;;;;;;;-0.33;67.31;99225.91;218453;1277;22702;-70
2022/03/06 05:04:12;;;;;;;20.70;11.20;;;;;;;-0.33;66.85;99225.21;218429;1276;22651;-69
2022/03/06 05:09:55;;;;;;;;;;;;;;;;;;;;;
2022/03/06 05:16:11;;;;;;;;;;;;;;;;;;;;;
2022/03/06 05:21:45;;;;;;;19.00;10.70;;;;;;;-0.39;66.49;99217.56;218532;1277;25265;-70
2022/03/06 05:26:47;;;;;;;22.80;12.00;;;;;;;-0.41;66.36;99223.84;218662;1277;25499;-70
2022/03/06 05:31:51;;;;;;;24.30;13.80;;;;;;;-0.44;66.89;99225.79;218541;1276;22742;-69
2022/03/06 05:36:54;;;;;;;24.00;12.80;;;;;;;-0.43;67.08;99225.11;218877;1277;22710;-69
2022/03/06 05:41:56;;;;;;;25.70;14.60;;;;;;;-0.40;67.20;99224.61;218774;1276;22547;-69
2022/03/06 05:46:59;;;;;;;25.90;13.30;;;;;;;-0.43;67.37;99222.31;218489;1278;22518;-69
2022/03/06 05:52:02;;;;;;;22.60;12.90;;;;;;;-0.47;67.34;99221.80;218490;1277;22614;-70
2022/03/06 05:57:06;;;;;;;21.90;12.00;;;;;;;-0.49;67.36;99222.08;218325;1278;22807;-73
2022/03/06 06:02:09;;;;;;;28.30;13.20;;;;;;;-0.47;67.09;99223.47;218551;1276;22533;-69
2022/03/06 06:07:18;;;;;;;27.80;14.50;;;;;;;-0.45;67.16;99221.23;218500;1276;22554;-70
2022/03/06 06:12:21;;;;;;;24.00;14.40;;;;;;;-0.39;66.90;99225.09;218755;1277;25441;-70
2022/03/06 06:17:31;;;;;;;23.50;11.50;;;;;;;-0.31;66.78;99226.17;218452;1276;24451;-70
2022/03/06 06:23:12;;;;;;;20.90;11.00;;;;;;;-0.22;66.33;99222.55;218641;1275;22893;-69
2022/03/06 06:28:14;;;;;;;21.30;11.80;;;;;;;-0.13;66.11;99222.08;218992;1276;22547;-71
2022/03/06 06:33:17;;;;;;;23.30;11.80;;;;;;;-0.03;66.13;99225.41;219615;1277;26430;-70
2022/03/06 06:38:20;;;;;;;19.80;11.00;;;;;;;0.13;65.74;99227.83;219694;1277;22535;-69
2022/03/06 06:43:26;;;;;;;33.40;16.00;;;;;;;0.35;65.52;99236.09;218543;1277;22541;-72
2022/03/06 06:48:28;;;;;;;23.20;13.80;;;;;;;0.58;65.59;99240.52;218597;1278;24406;-69
2022/03/06 06:53:41;;;;;;;22.10;13.30;;;;;;;0.78;65.38;99240.39;218684;1277;22558;-70
2022/03/06 06:58:43;;;;;;;24.90;13.20;;;;;;;0.82;64.72;99243.66;218470;1278;22609;-70
2022/03/06 07:03:46;;;;;;;21.60;12.30;;;;;;;0.76;64.17;99247.84;218663;1277;22600;-70
2022/03/06 07:08:49;;;;;;;24.10;14.40;;;;;;;0.65;64.09;99245.67;218862;1277;22558;-69
2022/03/06 07:13:56;;;;;;;26.50;16.00;;;;;;;0.70;64.57;99248.93;218817;1278;22613;-69
2022/03/06 07:18:59;;;;;;;28.60;17.80;;;;;;;0.79;64.88;99241.98;218454;1277;22623;-70
2022/03/06 07:24:01;;;;;;;33.70;17.70;;;;;;;0.96;65.31;99245.67;218145;1277;493681;-70
2022/03/06 07:29:07;;;;;;;29.10;17.90;;;;;;;1.10;64.87;99247.73;218548;1276;24478;-70
2022/03/06 07:34:09;;;;;;;30.00;17.00;;;;;;;1.16;64.80;99250.24;218591;1277;24285;-71
2022/03/06 07:39:12;;;;;;;30.30;17.60;;;;;;;1.29;64.65;99247.05;218776;1277;24238;-70
2022/03/06 07:44:14;;;;;;;25.30;14.80;;;;;;;1.40;64.58;99240.48;218535;1278;24299;-71
2022/03/06 07:49:17;;;;;;;24.80;13.90;;;;;;;1.44;63.71;99237.12;218761;1277;25474;-71
2022/03/06 07:54:19;;;;;;;18.10;10.20;;;;;;;1.47;63.08;99239.47;218175;1278;22635;-70
2022/03/06 07:59:25;;;;;;;18.10;11.00;;;;;;;1.41;62.51;99236.39;218579;1277;22598;-70
2022/03/06 08:04:27;;;;;;;17.20;10.90;;;;;;;1.42;62.46;99232.94;218704;1277;22538;-70
2022/03/06 08:09:29;;;;;;;21.50;12.10;;;;;;;1.49;62.42;99231.95;218480;1278;22652;-69
2022/03/06 08:14:52;;;;;;;;;;;;;;;;;;;;;
2022/03/06 08:20:14;;;;;;;;;;;;;;;;;;;;;
2022/03/06 08:25:34;;;;;;;10.90;7.10;;;;;;;1.38;61.24;99232.64;218772;1276;22656;-70
2022/03/06 08:30:39;;;;;;;10.70;7.50;;;;;;;1.43;61.23;99228.02;218563;1278;22625;-70
2022/03/06 08:35:42;;;;;;;14.20;8.80;;;;;;;1.51;60.97;99225.10;218734;1277;22583;-69
2022/03/06 08:40:49;;;;;;;13.70;8.50;;;;;;;1.62;61.17;99227.14;218645;1277;22976;-70
2022/03/06 08:45:54;;;;;;;10.20;6.90;;;;;;;1.74;61.13;99227.67;218602;1277;22624;-70
2022/03/06 08:50:57;;;;;;;12.60;7.50;;;;;;;1.95;60.60;99222.82;218640;1277;22611;-70
2022/03/06 08:56:00;;;;;;;11.00;7.30;;;;;;;2.11;60.71;99219.30;218560;1276;24400;-69
2022/03/06 09:01:03;;;;;;;10.80;7.10;;;;;;;2.24;60.39;99218.30;218640;1277;25107;-69
2022/03/06 09:06:09;;;;;;;9.20;7.30;;;;;;;2.28;60.28;99219.63;218591;1277;25368;-70
2022/03/06 09:11:12;;;;;;;13.60;9.60;;;;;;;2.17;60.16;99223.74;219105;1277;25380;-70
2022/03/06 09:16:14;;;;;;;17.00;10.10;;;;;;;1.98;60.98;99225.59;218708;1277;22626;-70
2022/03/06 09:21:17;;;;;;;15.30;9.40;;;;;;;1.82;61.30;99229.34;218727;1277;25266;-70
2022/03/06 09:26:19;;;;;;;14.20;9.30;;;;;;;1.61;61.51;99222.35;218679;1276;22538;-70
2022/03/06 09:31:22;;;;;;;19.50;12.60;;;;;;;1.46;62.04;99226.04;218771;1277;22603;-69
2022/03/06 09:36:24;;;;;;;19.90;11.30;;;;;;;1.46;62.40;99227.21;219111;1277;22993;-69
2022/03/06 09:41:27;;;;;;;20.90;12.90;;;;;;;1.53;62.35;99225.08;218669;1277;22553;-70
2022/03/06 09:46:33;;;;;;;22.50;12.00;;;;;;;1.73;62.37;99226.95;218694;1276;25512;-68
2022/03/06 09:51:56;;;;;;;17.50;10.60;;;;;;;1.91;62.06;99221.92;218791;1277;22657;-69
2022/03/06 09:57:05;;;;;;;16.50;10.10;;;;;;;1.95;61.55;99215.02;218670;1277;22556;-69
2022/03/06 10:02:10;;;;;;;15.20;9.30;;;;;;;1.98;61.44;99219.02;218704;1277;22770;-68
2022/03/06 10:07:23;;;;;;;16.10;9.50;;;;;;;2.11;60.92;99218.20;219660;1277;22567;-69
2022/03/06 10:12:30;;;;;;;15.20;9.40;;;;;;;2.23;61.20;99216.87;218824;1276;22507;-69
2022/03/06 10:17:34;;;;;;;15.40;9.40;;;;;;;2.51;60.88;99216.44;218635;1278;22566;-70
2022/03/06 10:22:43;;;;;;;14.20;9.80;;;;;;;2.79;60.56;99219.25;218574;1276;25066;-70
2022/03/06 10:27:53;;;;;;;16.80;10.20;;;;;;;3.00;60.05;99219.88;219074;1276;22663;-70
2022/03/06 10:33:02;;;;;;;15.60;9.50;;;;;;;3.03;58.76;99218.94;219433;1276;25428;-69
2022/03/06 10:38:16;;;;;;;16.20;10.60;;;;;;;2.99;58.40;99215.50;218989;1276;22547;-68
2022/03/06 10:43:31;;;;;;;19.50;10.90;;;;;;;2.95;58.36;99215.41;218493;1277;24297;-70
2022/03/06 10:48:34;;;;;;;22.10;11.80;;;;;;;2.72;58.08;99210.81;218791;1276;24256;-70
2022/03/06 10:53:37;;;;;;;19.10;12.60;;;;;;;2.52;58.15;99207.52;218662;1277;24258;-70
2022/03/06 10:58:43;;;;;;;22.90;12.70;;;;;;;2.33;58.51;99202.84;218569;1276;22632;-69
2022/03/06 11:04:03;;;;;;;19.30;12.00;;;;;;;2.16;58.00;99200.58;218915;1277;24257;-69
2022/03/06 11:09:13;;;;;;;20.70;12.30;;;;;;;2.10;58.23;99197.92;219135;1276;24248;-69
2022/03/06 11:14:17;;;;;;;20.20;10.00;;;;;;;2.10;57.92;99196.70;218619;1277;24332;-68
2022/03/06 11:19:33;;;;;;;;;;;;;;;;;;;;;
2022/03/06 11:24:38;;;;;;;16.60;10.30;;;;;;;2.26;57.71;99183.77;218861;1276;25504;-70
2022/03/06 11:30:29;;;;;;;17.80;10.10;;;;;;;2.37;57.34;99180.21;218591;1276;25393;-70
2022/03/06 11:35:44;;;;;;;15.00;9.00;;;;;;;2.57;57.21;99173.52;218684;1276;24443;-70
2022/03/06 11:40:58;;;;;;;13.90;8.80;;;;;;;2.67;56.41;99171.40;218704;1276;22713;-69
2022/03/06 11:46:20;;;;;;;12.70;8.00;;;;;;;2.76;56.03;99166.10;219399;1276;22555;-72
2022/03/06 11:51:30;;;;;;;14.30;9.00;;;;;;;2.85;55.89;99163.47;218516;1276;25362;-70
2022/03/06 11:56:46;;;;;;;14.60;9.50;;;;;;;2.88;55.68;99151.83;218732;1276;25355;-70
2022/03/06 12:01:51;;;;;;;16.50;9.90;;;;;;;2.94;55.50;99146.32;219589;1276;22684;-70
2022/03/06 12:06:59;;;;;;;15.80;10.60;;;;;;;2.89;55.15;99135.08;218682;1276;26491;-70
2022/03/06 12:12:08;;;;;;;14.00;9.10;;;;;;;2.85;55.02;99130.96;218705;1276;25725;-70
2022/03/06 12:17:11;;;;;;;15.00;8.90;;;;;;;2.80;54.77;99128.35;218643;1276;22568;-71
2022/03/06 12:22:22;;;;;;;13.30;9.00;;;;;;;2.70;54.71;99121.18;218835;1276;23348;-69
2022/03/06 12:27:24;;;;;;;14.90;8.90;;;;;;;2.52;54.26;99110.60;218642;1276;24831;-70
2022/03/06 12:32:27;;;;;;;14.30;9.10;;;;;;;2.36;54.42;99109.36;218915;1276;22540;-69
2022/03/06 12:37:35;;;;;;;16.40;9.00;;;;;;;2.29;54.69;99104.95;218803;1276;23513;-69
2022/03/06 12:42:40;;;;;;;14.00;8.60;;;;;;;2.31;54.65;99095.05;218861;1276;22563;-69
2022/03/06 12:47:44;;;;;;;14.40;9.00;;;;;;;2.29;54.40;99094.70;219733;1275;22573;-70
2022/03/06 12:52:48;;;;;;;13.90;8.90;;;;;;;2.33;54.16;99091.84;218943;1276;24369;-71
2022/03/06 12:57:57;;;;;;;14.30;8.70;;;;;;;2.30;53.81;99089.77;218850;1276;25441;-69
2022/03/06 13:03:02;;;;;;;13.50;8.20;;;;;;;2.30;53.70;99087.91;218841;1276;26451;-70
2022/03/06 13:08:05;;;;;;;13.00;7.90;;;;;;;2.27;53.31;99091.27;219639;1276;25865;-69
2022/03/06 13:13:07;;;;;;;17.30;10.10;;;;;;;2.26;53.01;99090.97;218559;1278;22591;-67
2022/03/06 13:18:12;;;;;;;20.70;12.20;;;;;;;2.20;52.95;99095.36;218378;1277;22565;-70
2022/03/06 13:23:19;;;;;;;17.60;10.00;;;;;;;2.11;53.47;99092.27;218446;1277;25392;-70
2022/03/06 13:28:22;;;;;;;16.40;8.80;;;;;;;2.00;53.18;99090.11;218781;1277;25373;-70
2022/03/06 13:33:25;;;;;;;13.50;8.80;;;;;;;1.86;53.07;99090.91;218368;1277;22740;-69
2022/03/06 13:38:28;;;;;;;16.60;9.20;;;;;;;1.74;53.42;99089.46;218477;1277;22589;-69
2022/03/06 13:43:49;;;;;;;17.90;9.90;;;;;;;1.61;53.75;99084.18;218643;1277;26450;-70
2022/03/06 13:49:14;;;;;;;19.50;11.30;;;;;;;1.55;53.91;99080.02;218686;1277;23341;-70
2022/03/06 13:54:16;;;;;;;17.70;10.70;;;;;;;1.58;54.02;99082.63;218346;1277;25267;-69
2022/03/06 13:59:37;;;;;;;21.30;11.90;;;;;;;1.61;53.89;99083.98;218314;1277;25300;-70
2022/03/06 14:04:49;;;;;;;17.00;9.80;;;;;;;1.60;53.54;99085.54;218512;1277;24112;-70
2022/03/06 14:09:55;;;;;;;19.10;10.90;;;;;;;1.61;53.84;99085.56;218604;1276;22607;-70
2022/03/06 14:14:59;;;;;;;15.40;9.90;;;;;;;1.55;53.84;99081.45;219464;1276;25378;-70
2022/03/06 14:20:08;;;;;;;14.50;9.30;;;;;;;1.47;54.14;99078.48;218292;1278;25390;-69
2022/03/06 14:25:13;;;;;;;18.00;10.80;;;;;;;1.47;54.48;99081.73;218370;1277;25263;-70
2022/03/06 14:30:15;;;;;;;18.00;11.00;;;;;;;1.47;54.83;99082.96;218439;1277;22554;-71
2022/03/06 14:35:18;;;;;;;20.60;11.70;;;;;;;1.41;54.92;99080.35;218345;1277;25377;-69
2022/03/06 14:40:22;;;;;;;18.10;10.80;;;;;;;1.34;54.86;99077.95;218658;1277;25035;-70
2022/03/06 14:45:25;;;;;;;16.50;9.90;;;;;;;1.29;55.13;99078.25;218604;1277;22576;-69
2022/03/06 14:50:28;;;;;;;16.80;9.00;;;;;;;1.25;55.55;99081.05;218678;1277;22744;-71
2022/03/06 14:55:31;;;;;;;16.70;9.50;;;;;;;1.18;55.33;99084.46;219586;1277;24412;-69
2022/03/06 15:01:07;;;;;;;16.20;9.50;;;;;;;1.10;55.47;99081.70;218498;1277;22947;-68
2022/03/06 15:06:14;;;;;;;16.70;10.00;;;;;;;1.04;55.63;99083.46;218470;1277;23042;-69
2022/03/06 15:11:22;;;;;;;16.80;9.50;;;;;;;0.95;55.90;99083.84;218405;1275;22708;-70
2022/03/06 15:16:26;;;;;;;15.10;9.30;;;;;;;0.87;55.73;99085.13;218510;1275;22556;-69
2022/03/06 15:21:31;;;;;;;17.50;10.50;;;;;;;0.78;55.69;99087.27;218690;1277;22636;-69
2022/03/06 15:26:36;;;;;;;16.00;9.60;;;;;;;0.67;56.04;99085.25;218356;1276;25434;-70
2022/03/06 15:31:44;;;;;;;15.90;9.60;;;;;;;0.55;55.81;99095.61;218566;1277;22771;-70
2022/03/06 15:36:47;;;;;;;20.40;10.60;;;;;;;0.45;55.94;99094.78;218478;1276;24428;-69
2022/03/06 15:41:51;;;;;;;25.10;11.00;;;;;;;0.39;56.38;99095.94;218299;1277;22541;-70
2022/03/06 15:46:53;;;;;;;23.80;11.70;;;;;;;0.34;56.89;99089.00;218690;1276;23099;-70
2022/03/06 15:51:59;;;;;;;21.40;10.80;;;;;;;0.30;57.06;99093.02;218400;1277;23088;-71
2022/03/06 15:57:01;;;;;;;16.90;10.40;;;;;;;0.26;57.15;99094.32;218485;1277;26095;-70
2022/03/06 16:02:04;;;;;;;22.20;11.00;;;;;;;0.22;57.39;99094.83;218588;1276;23107;-70
2022/03/06 16:07:06;;;;;;;24.50;12.00;;;;;;;0.21;57.76;99099.46;218441;1276;22545;-68
2022/03/06 16:12:09;;;;;;;18.90;10.50;;;;;;;0.15;57.65;99099.05;218525;1276;24250;-69
2022/03/06 16:17:31;;;;;;;22.30;11.40;;;;;;;0.10;57.94;99100.58;218478;1276;25435;-69
2022/03/06 16:22:33;;;;;;;23.20;11.20;;;;;;;0.08;58.20;99105.98;218822;1276;22654;-70
2022/03/06 16:27:35;;;;;;;26.00;13.60;;;;;;;0.05;58.59;99110.28;218719;1276;22619;-69
2022/03/06 16:32:42;;;;;;;24.30;12.00;;;;;;;0.02;58.87;99111.77;218634;1276;22642;-70
2022/03/06 16:37:44;;;;;;;24.70;11.70;;;;;;;0.01;58.95;99114.45;218700;1276;22558;-70
2022/03/06 16:42:56;;;;;;;22.10;12.40;;;;;;;0.00;59.07;99110.70;218847;1276;22534;-69
2022/03/06 16:48:04;;;;;;;22.90;13.20;;;;;;;0.01;58.98;99113.20;218769;1276;25361;-69
2022/03/06 16:53:07;;;;;;;22.40;12.50;;;;;;;0.03;59.33;99109.77;218792;1276;22566;-69
2022/03/06 16:58:18;;;;;;;20.10;11.80;;;;;;;0.00;59.49;99112.26;218904;1276;22620;-68
2022/03/06 17:03:21;;;;;;;;;;;;;;;-0.05;59.51;99117.36;218609;1275;22522;-68
2022/03/06 17:08:40;;;;;;;;;;;;;;;;;;;;;
2022/03/06 17:14:23;;;;;;;18.70;9.60;;;;;;;-0.16;59.37;99126.36;218753;1276;26209;-70
2022/03/06 17:19:26;;;;;;;18.90;11.70;;;;;;;-0.21;59.21;99130.39;218448;1276;25325;-69
2022/03/06 17:24:42;;;;;;;19.90;11.30;;;;;;;-0.27;59.44;99126.93;218852;1276;25642;-70
2022/03/06 17:29:45;;;;;;;26.90;13.40;;;;;;;-0.28;59.44;99128.27;218670;1276;22577;-71
2022/03/06 17:34:48;;;;;;;28.10;13.80;;;;;;;-0.28;59.77;99127.79;219169;1276;25141;-69
2022/03/06 17:40:02;;;;;;;23.50;13.90;;;;;;;-0.27;59.92;99130.37;218821;1276;25342;-69
2022/03/06 17:45:19;;;;;;;26.50;13.60;;;;;;;-0.26;59.92;99131.26;218914;1277;22762;-70
2022/03/06 17:50:21;;;;;;;33.00;15.70;;;;;;;-0.23;60.19;99135.67;218886;1276;22764;-70
2022/03/06 17:55:23;;;;;;;37.60;17.30;;;;;;;-0.24;60.40;99137.49;219670;1276;22667;-70
2022/03/06 18:00:27;;;;;;;43.80;18.20;;;;;;;-0.27;60.28;99140.30;219714;1276;24153;-68
2022/03/06 18:05:29;;;;;;;47.50;18.30;;;;;;;-0.27;60.67;99141.64;218733;1276;26502;-69
2022/03/06 18:10:35;;;;;;;45.60;19.90;;;;;;;-0.25;60.80;99139.88;218608;1276;26575;-69
2022/03/06 18:15:39;;;;;;;39.90;18.00;;;;;;;-0.24;60.68;99140.29;218634;1276;25552;-69
2022/03/06 18:21:04;;;;;;;34.60;16.60;;;;;;;-0.23;60.91;99133.06;218682;1276;22681;-70
2022/03/06 18:26:18;;;;;;;33.70;17.40;;;;;;;-0.22;60.98;99131.61;218793;1276;22563;-69
2022/03/06 18:31:29;;;;;;;37.30;17.10;;;;;;;-0.26;61.17;99130.73;218791;1276;24300;-69
2022/03/06 18:36:35;;;;;;;28.10;15.70;;;;;;;-0.28;61.22;99137.71;218783;1276;22658;-69
2022/03/06 18:41:42;;;;;;;29.40;15.40;;;;;;;-0.30;61.66;99136.50;219117;1276;25253;-69
2022/03/06 18:46:44;;;;;;;27.80;15.40;;;;;;;-0.30;61.87;99136.50;219779;1276;25515;-70
2022/03/06 18:51:47;;;;;;;29.50;16.10;;;;;;;-0.28;62.07;99135.36;220011;1276;25367;-68
2022/03/06 18:56:51;;;;;;;25.60;15.30;;;;;;;-0.26;61.95;99134.83;219018;1276;22533;-70
2022/03/06 19:01:53;;;;;;;27.50;15.20;;;;;;;-0.26;61.95;99134.58;218729;1276;24129;-70
2022/03/06 19:06:56;;;;;;;29.70;16.00;;;;;;;-0.26;62.11;99136.64;219403;1276;23113;-70
2022/03/06 19:11:59;;;;;;;31.30;16.50;;;;;;;-0.25;62.13;99138.70;219056;1276;24189;-70
2022/03/06 19:17:06;;;;;;;30.60;16.10;;;;;;;-0.24;62.25;99135.05;218816;1276;22734;-69
2022/03/06 19:22:11;;;;;;;34.20;17.90;;;;;;;-0.26;62.53;99136.36;218681;1276;626381;-70
2022/03/06 19:27:14;;;;;;;35.20;18.70;;;;;;;-0.30;62.22;99137.48;219273;1276;25264;-70
2022/03/06 19:32:17;;;;;;;31.40;16.80;;;;;;;-0.34;62.51;99136.39;219113;1276;22560;-69
2022/03/06 19:37:20;;;;;;;38.40;18.30;;;;;;;-0.36;62.75;99135.42;219037;1276;26383;-69
2022/03/06 19:42:24;;;;;;;35.50;18.50;;;;;;;-0.37;63.16;99134.34;218834;1276;25409;-69
2022/03/06 19:47:26;;;;;;;33.10;18.20;;;;;;;-0.39;62.90;99136.05;219079;1276;25468;-69
2022/03/06 19:52:34;;;;;;;32.10;17.30;;;;;;;-0.43;62.88;99130.23;218794;1276;25614;-70
2022/03/06 19:57:42;;;;;;;30.40;15.90;;;;;;;-0.46;62.96;99133.80;218988;1276;22599;-69
2022/03/06 20:02:45;;;;;;;26.00;14.70;;;;;;;-0.47;63.16;99133.80;219107;1276;22560;-69
2022/03/06 20:07:47;;;;;;;28.30;15.80;;;;;;;-0.49;63.20;99141.41;218681;1276;23082;-70
2022/03/06 20:12:53;;;;;;;25.90;14.10;;;;;;;-0.51;63.51;99142.14;218745;1276;22602;-69
2022/03/06 20:17:55;;;;;;;26.80;14.90;;;;;;;-0.51;63.47;99145.43;218775;1276;24225;-70
2022/03/06 20:23:00;;;;;;;24.00;13.40;;;;;;;-0.53;63.36;99149.94;219777;1276;25465;-70
2022/03/06 20:28:04;;;;;;;25.70;14.00;;;;;;;-0.56;63.39;99149.40;219729;1276;23283;-69
2022/03/06 20:33:27;;;;;;;23.50;13.10;;;;;;;-0.56;63.52;99150.83;218898;1276;22538;-70
2022/03/06 20:38:42;;;;;;;25.70;13.50;;;;;;;-0.57;63.62;99159.75;218700;1276;22627;-70
2022/03/06 20:43:59;;;;;;;;;;;;;;;;;;;;;
2022/03/06 20:49:01;;;;;;;23.90;12.80;;;;;;;-0.61;63.55;99162.83;219202;1276;24204;-69
2022/03/06 20:54:04;;;;;;;22.50;13.00;;;;;;;-0.63;63.52;99165.55;219053;1275;23029;-69
2022/03/06 20:59:06;;;;;;;22.20;12.80;;;;;;;-0.67;63.25;99164.45;218753;1277;22541;-69
2022/03/06 21:04:09;;;;;;;22.00;13.60;;;;;;;-0.72;63.08;99166.37;218749;1278;22524;-68
2022/03/06 21:09:12;;;;;;;19.10;12.80;;;;;;;-0.76;63.07;99169.89;218883;1278;22630;-70
2022/03/06 21:14:14;;;;;;;21.30;12.00;;;;;;;-0.83;62.79;99172.38;218719;1278;24465;-70
2022/03/06 21:19:20;;;;;;;20.70;11.70;;;;;;;-0.92;62.48;99177.63;219259;1276;26839;-69
2022/03/06 21:24:22;;;;;;;23.90;13.10;;;;;;;-1.01;62.37;99172.63;219017;1276;22540;-70
2022/03/06 21:29:24;;;;;;;23.70;12.30;;;;;;;-1.05;62.40;99172.54;218913;1276;22546;-69
2022/03/06 21:34:40;;;;;;;22.60;12.20;;;;;;;-1.06;62.34;99174.77;218836;1276;22700;-69
2022/03/06 21:39:57;;;;;;;18.40;10.70;;;;;;;-1.10;61.98;99178.58;218718;1276;22989;-68
2022/03/06 21:44:59;;;;;;;22.10;12.10;;;;;;;-1.17;61.97;99173.99;218683;1276;22738;-69
2022/03/06 21:50:03;;;;;;;24.20;13.00;;;;;;;-1.22;61.89;99173.27;218972;1276;22773;-69
2022/03/06 21:55:06;;;;;;;20.80;11.70;;;;;;;-1.24;62.07;99175.12;218822;1276;22705;-70
2022/03/06 22:00:10;;;;;;;19.70;11.60;;;;;;;-1.26;61.83;99179.98;219006;1276;22733;-69
2022/03/06 22:05:17;;;;;;;21.60;12.40;;;;;;;-1.29;61.85;99182.23;219327;1276;22538;-70
2022/03/06 22:10:19;;;;;;;18.20;11.50;;;;;;;-1.29;61.74;99188.59;219125;1277;22770;-70
2022/03/06 22:15:28;;;;;;;17.50;10.80;;;;;;;-1.30;61.84;99187.10;218870;1276;22549;-68
2022/03/06 22:20:35;;;;;;;21.20;11.80;;;;;;;-1.29;61.77;99190.53;218865;1276;22624;-70
2022/03/06 22:25:37;;;;;;;20.40;11.90;;;;;;;-1.31;61.89;99194.89;218833;1276;22890;-69
2022/03/06 22:30:40;;;;;;;21.50;12.60;;;;;;;-1.33;61.76;99197.33;218746;1276;25241;-69
2022/03/06 22:35:42;;;;;;;20.50;12.20;;;;;;;-1.36;61.67;99196.90;218782;1277;23346;-69
2022/03/06 22:40:45;;;;;;;18.20;11.40;;;;;;;-1.42;61.73;99195.50;219052;1276;24377;-69
2022/03/06 22:45:47;;;;;;;20.70;11.60;;;;;;;-1.44;61.67;99195.20;218715;1276;24251;-69
2022/03/06 22:50:50;;;;;;;22.50;13.20;;;;;;;-1.46;61.46;99192.92;219209;1276;25400;-68
2022/03/06 22:55:53;;;;;;;21.30;12.50;;;;;;;-1.48;61.59;99188.06;218930;1276;24324;-68
2022/03/06 23:01:51;;;;;;;20.30;12.10;;;;;;;-1.51;61.43;99187.39;218748;1276;23820;-69
2022/03/06 23:07:07;;;;;;;21.90;13.40;;;;;;;-1.53;61.40;99183.14;218800;1277;25392;-69
2022/03/06 23:12:14;;;;;;;22.10;13.30;;;;;;;-1.57;61.13;99184.21;218688;1276;22637;-69
2022/03/06 23:17:18;;;;;;;20.00;12.30;;;;;;;-1.61;61.02;99182.11;218972;1276;22604;-68
2022/03/06 23:22:20;;;;;;;26.20;14.60;;;;;;;-1.64;61.39;99181.33;218873;1276;22539;-69
2022/03/06 23:27:22;;;;;;;23.30;13.80;;;;;;;-1.66;61.37;99179.18;218822;1276;22612;-70
2022/03/06 23:32:25;;;;;;;25.50;14.20;;;;;;;-1.67;61.45;99182.81;218666;1276;22586;-69
2022/03/06 23:37:28;;;;;;;24.80;14.00;;;;;;;-1.68;61.41;99179.09;218819;1277;22560;-70
2022/03/06 23:42:31;;;;;;;23.90;14.50;;;;;;;-1.70;61.49;99179.55;218844;1276;23541;-69
2022/03/06 23:47:35;;;;;;;25.50;14.60;;;;;;;-1.74;61.51;99179.45;218716;1276;22557;-69
2022/03/06 23:52:37;;;;;;;21.50;13.90;;;;;;;-1.78;61.93;99176.08;218858;1276;22575;-68
2022/03/06 23:57:41;;;;;;;26.20;14.70;;;;;;;-1.79;62.10;99175.31;218790;1276;22760;-68
